sensor_id;sensor_type;location;lat;lon;timestamp;P1;durP1;ratioP1;P2;durP2;ratioP2
24305;SDS011;12423;48.768;8.850;2023-06-05T00:00:39;3.63;;;1.90;;
24305;SDS011;12423;48.768;8.850;2023-06-05T00:02:40;7.20;;;2.00;;
24305;SDS011;12423;48.768;8.850;2023-06-05T00:04:41;4.93;;;2.25;;
24305;SDS011;12423;48.768;8.850;2023-06-05T00:06:43;6.18;;;2.03;;
24305;SDS011;12423;48.768;8.850;2023-06-05T00:08:46;4.30;;;2.08;;
24305;SDS011;12423;48.768;8.850;2023-06-05T00:10:47;3.90;;;2.00;;
24305;SDS011;12423;48.768;8.850;2023-06-05T00:12:48;3.30;;;1.88;;
24305;SDS011;12423;48.768;8.850;2023-06-05T00:14:49;3.28;;;1.70;;
24305;SDS011;12423;48.768;8.850;2023-06-05T00:16:51;4.60;;;2.00;;
24305;SDS011;12423;48.768;8.850;2023-06-05T00:18:52;4.00;;;2.03;;
24305;SDS011;12423;48.768;8.850;2023-06-05T00:20:53;4.57;;;2.13;;
24305;SDS011;12423;48.768;8.850;2023-06-05T00:22:54;4.03;;;1.90;;
24305;SDS011;12423;48.768;8.850;2023-06-05T00:24:55;6.50;;;1.73;;
24305;SDS011;12423;48.768;8.850;2023-06-05T00:26:56;5.95;;;2.10;;
24305;SDS011;12423;48.768;8.850;2023-06-05T00:28:57;5.07;;;2.10;;
24305;SDS011;12423;48.768;8.850;2023-06-05T00:30:58;4.00;;;1.90;;
24305;SDS011;12423;48.768;8.850;2023-06-05T00:33:00;4.57;;;1.98;;
24305;SDS011;12423;48.768;8.850;2023-06-05T00:35:01;4.53;;;2.00;;
24305;SDS011;12423;48.768;8.850;2023-06-05T00:37:02;4.20;;;2.15;;
24305;SDS011;12423;48.768;8.850;2023-06-05T00:39:04;4.13;;;2.22;;
24305;SDS011;12423;48.768;8.850;2023-06-05T00:41:05;3.30;;;2.13;;
24305;SDS011;12423;48.768;8.850;2023-06-05T00:43:06;5.72;;;2.17;;
24305;SDS011;12423;48.768;8.850;2023-06-05T00:45:08;5.65;;;2.25;;
24305;SDS011;12423;48.768;8.850;2023-06-05T00:47:09;3.70;;;2.10;;
24305;SDS011;12423;48.768;8.850;2023-06-05T00:49:10;4.40;;;2.30;;
24305;SDS011;12423;48.768;8.850;2023-06-05T00:51:12;3.60;;;2.30;;
24305;SDS011;12423;48.768;8.850;2023-06-05T00:53:16;5.35;;;2.22;;
24305;SDS011;12423;48.768;8.850;2023-06-05T00:55:17;6.45;;;2.58;;
24305;SDS011;12423;48.768;8.850;2023-06-05T00:57:18;4.13;;;2.20;;
24305;SDS011;12423;48.768;8.850;2023-06-05T00:59:20;3.53;;;2.13;;
24305;SDS011;12423;48.768;8.850;2023-06-05T01:01:22;3.42;;;2.25;;
24305;SDS011;12423;48.768;8.850;2023-06-05T01:03:25;3.75;;;2.17;;
24305;SDS011;12423;48.768;8.850;2023-06-05T01:05:32;4.65;;;2.42;;
24305;SDS011;12423;48.768;8.850;2023-06-05T01:07:34;4.53;;;2.22;;
24305;SDS011;12423;48.768;8.850;2023-06-05T01:09:39;5.22;;;2.28;;
24305;SDS011;12423;48.768;8.850;2023-06-05T01:11:52;3.78;;;2.10;;
24305;SDS011;12423;48.768;8.850;2023-06-05T01:14:02;4.07;;;1.90;;
24305;SDS011;12423;48.768;8.850;2023-06-05T01:18:11;3.92;;;1.83;;
24305;SDS011;12423;48.768;8.850;2023-06-05T01:20:12;3.55;;;2.10;;
24305;SDS011;12423;48.768;8.850;2023-06-05T01:22:13;7.72;;;2.10;;
24305;SDS011;12423;48.768;8.850;2023-06-05T01:24:16;3.70;;;2.00;;
24305;SDS011;12423;48.768;8.850;2023-06-05T01:26:24;3.70;;;2.03;;
24305;SDS011;12423;48.768;8.850;2023-06-05T01:28:33;4.05;;;1.77;;
24305;SDS011;12423;48.768;8.850;2023-06-05T01:30:38;8.25;;;2.10;;
24305;SDS011;12423;48.768;8.850;2023-06-05T01:32:49;6.78;;;2.03;;
24305;SDS011;12423;48.768;8.850;2023-06-05T01:34:56;3.38;;;1.77;;
24305;SDS011;12423;48.768;8.850;2023-06-05T01:36:59;4.30;;;2.60;;
24305;SDS011;12423;48.768;8.850;2023-06-05T01:39:02;4.78;;;1.95;;
24305;SDS011;12423;48.768;8.850;2023-06-05T01:41:05;4.57;;;1.80;;
24305;SDS011;12423;48.768;8.850;2023-06-05T01:43:07;4.07;;;1.98;;
24305;SDS011;12423;48.768;8.850;2023-06-05T01:45:10;3.45;;;2.00;;
24305;SDS011;12423;48.768;8.850;2023-06-05T01:47:12;4.15;;;1.55;;
24305;SDS011;12423;48.768;8.850;2023-06-05T01:49:13;3.13;;;1.98;;
24305;SDS011;12423;48.768;8.850;2023-06-05T01:51:16;3.60;;;2.20;;
24305;SDS011;12423;48.768;8.850;2023-06-05T01:53:18;7.85;;;2.20;;
24305;SDS011;12423;48.768;8.850;2023-06-05T01:55:21;3.92;;;2.17;;
24305;SDS011;12423;48.768;8.850;2023-06-05T01:57:27;6.28;;;2.33;;
24305;SDS011;12423;48.768;8.850;2023-06-05T01:59:29;3.75;;;2.20;;
24305;SDS011;12423;48.768;8.850;2023-06-05T02:01:30;5.68;;;2.20;;
24305;SDS011;12423;48.768;8.850;2023-06-05T02:03:31;5.05;;;2.03;;
24305;SDS011;12423;48.768;8.850;2023-06-05T02:05:32;4.03;;;2.10;;
24305;SDS011;12423;48.768;8.850;2023-06-05T02:07:34;3.83;;;1.90;;
24305;SDS011;12423;48.768;8.850;2023-06-05T02:09:40;3.53;;;1.80;;
24305;SDS011;12423;48.768;8.850;2023-06-05T02:11:42;6.07;;;2.25;;
24305;SDS011;12423;48.768;8.850;2023-06-05T02:13:43;3.40;;;2.00;;
24305;SDS011;12423;48.768;8.850;2023-06-05T02:15:45;4.60;;;2.33;;
24305;SDS011;12423;48.768;8.850;2023-06-05T02:17:46;4.85;;;1.90;;
24305;SDS011;12423;48.768;8.850;2023-06-05T02:19:51;4.80;;;2.40;;
24305;SDS011;12423;48.768;8.850;2023-06-05T02:21:52;4.00;;;2.20;;
24305;SDS011;12423;48.768;8.850;2023-06-05T02:23:54;3.90;;;2.20;;
24305;SDS011;12423;48.768;8.850;2023-06-05T02:25:55;5.80;;;2.20;;
24305;SDS011;12423;48.768;8.850;2023-06-05T02:27:57;7.32;;;2.60;;
24305;SDS011;12423;48.768;8.850;2023-06-05T02:29:58;4.22;;;2.10;;
24305;SDS011;12423;48.768;8.850;2023-06-05T02:31:59;3.88;;;2.20;;
24305;SDS011;12423;48.768;8.850;2023-06-05T02:34:00;4.70;;;1.98;;
24305;SDS011;12423;48.768;8.850;2023-06-05T02:36:01;4.15;;;2.28;;
24305;SDS011;12423;48.768;8.850;2023-06-05T02:38:03;2.85;;;1.70;;
24305;SDS011;12423;48.768;8.850;2023-06-05T02:40:06;4.78;;;2.22;;
24305;SDS011;12423;48.768;8.850;2023-06-05T02:42:08;4.30;;;2.30;;
24305;SDS011;12423;48.768;8.850;2023-06-05T02:44:09;4.35;;;2.20;;
24305;SDS011;12423;48.768;8.850;2023-06-05T02:46:10;4.20;;;2.15;;
24305;SDS011;12423;48.768;8.850;2023-06-05T02:48:12;3.28;;;1.80;;
24305;SDS011;12423;48.768;8.850;2023-06-05T02:50:13;6.38;;;2.30;;
24305;SDS011;12423;48.768;8.850;2023-06-05T02:52:21;4.82;;;2.50;;
24305;SDS011;12423;48.768;8.850;2023-06-05T02:54:23;6.18;;;2.40;;
24305;SDS011;12423;48.768;8.850;2023-06-05T02:56:24;6.07;;;2.25;;
24305;SDS011;12423;48.768;8.850;2023-06-05T02:58:28;4.07;;;2.40;;
24305;SDS011;12423;48.768;8.850;2023-06-05T03:00:31;4.47;;;2.17;;
24305;SDS011;12423;48.768;8.850;2023-06-05T03:02:32;7.53;;;2.40;;
24305;SDS011;12423;48.768;8.850;2023-06-05T03:04:37;4.85;;;2.25;;
24305;SDS011;12423;48.768;8.850;2023-06-05T03:06:41;3.90;;;1.83;;
24305;SDS011;12423;48.768;8.850;2023-06-05T03:08:44;4.20;;;2.42;;
24305;SDS011;12423;48.768;8.850;2023-06-05T03:10:49;5.15;;;1.95;;
24305;SDS011;12423;48.768;8.850;2023-06-05T03:12:52;4.82;;;2.25;;
24305;SDS011;12423;48.768;8.850;2023-06-05T03:14:53;3.97;;;2.28;;
24305;SDS011;12423;48.768;8.850;2023-06-05T03:16:55;4.28;;;2.22;;
24305;SDS011;12423;48.768;8.850;2023-06-05T03:18:59;3.55;;;1.98;;
24305;SDS011;12423;48.768;8.850;2023-06-05T03:21:01;7.60;;;2.67;;
24305;SDS011;12423;48.768;8.850;2023-06-05T03:23:02;4.10;;;1.80;;
24305;SDS011;12423;48.768;8.850;2023-06-05T03:25:04;4.50;;;2.22;;
24305;SDS011;12423;48.768;8.850;2023-06-05T03:27:06;5.53;;;2.45;;
24305;SDS011;12423;48.768;8.850;2023-06-05T03:29:07;3.38;;;1.95;;
24305;SDS011;12423;48.768;8.850;2023-06-05T03:31:09;3.03;;;1.67;;
24305;SDS011;12423;48.768;8.850;2023-06-05T03:33:13;3.60;;;1.70;;
24305;SDS011;12423;48.768;8.850;2023-06-05T03:35:16;4.20;;;2.28;;
24305;SDS011;12423;48.768;8.850;2023-06-05T03:37:18;4.07;;;2.40;;
24305;SDS011;12423;48.768;8.850;2023-06-05T03:39:21;4.07;;;1.95;;
24305;SDS011;12423;48.768;8.850;2023-06-05T03:41:22;6.72;;;2.30;;
24305;SDS011;12423;48.768;8.850;2023-06-05T03:43:25;6.00;;;2.50;;
24305;SDS011;12423;48.768;8.850;2023-06-05T03:45:26;4.63;;;2.38;;
24305;SDS011;12423;48.768;8.850;2023-06-05T03:47:28;3.80;;;2.05;;
24305;SDS011;12423;48.768;8.850;2023-06-05T03:49:29;5.25;;;2.03;;
24305;SDS011;12423;48.768;8.850;2023-06-05T03:51:30;5.30;;;2.30;;
24305;SDS011;12423;48.768;8.850;2023-06-05T03:53:32;5.47;;;2.00;;
24305;SDS011;12423;48.768;8.850;2023-06-05T03:55:33;3.55;;;1.98;;
24305;SDS011;12423;48.768;8.850;2023-06-05T03:57:51;4.75;;;2.30;;
24305;SDS011;12423;48.768;8.850;2023-06-05T03:59:52;6.80;;;2.60;;
24305;SDS011;12423;48.768;8.850;2023-06-05T04:01:53;3.78;;;2.40;;
24305;SDS011;12423;48.768;8.850;2023-06-05T04:03:54;3.35;;;1.92;;
24305;SDS011;12423;48.768;8.850;2023-06-05T04:05:55;3.50;;;2.17;;
24305;SDS011;12423;48.768;8.850;2023-06-05T04:07:56;4.40;;;2.10;;
24305;SDS011;12423;48.768;8.850;2023-06-05T04:09:57;4.32;;;2.20;;
24305;SDS011;12423;48.768;8.850;2023-06-05T04:11:59;4.28;;;2.38;;
24305;SDS011;12423;48.768;8.850;2023-06-05T04:14:01;3.92;;;2.15;;
24305;SDS011;12423;48.768;8.850;2023-06-05T04:16:02;3.80;;;2.10;;
24305;SDS011;12423;48.768;8.850;2023-06-05T04:18:04;5.40;;;2.25;;
24305;SDS011;12423;48.768;8.850;2023-06-05T04:20:06;5.78;;;2.15;;
24305;SDS011;12423;48.768;8.850;2023-06-05T04:22:14;5.05;;;2.63;;
24305;SDS011;12423;48.768;8.850;2023-06-05T04:24:15;4.53;;;1.98;;
24305;SDS011;12423;48.768;8.850;2023-06-05T04:26:17;4.30;;;2.00;;
24305;SDS011;12423;48.768;8.850;2023-06-05T04:28:19;4.95;;;2.13;;
24305;SDS011;12423;48.768;8.850;2023-06-05T04:30:20;5.47;;;2.13;;
24305;SDS011;12423;48.768;8.850;2023-06-05T04:32:22;8.23;;;2.55;;
24305;SDS011;12423;48.768;8.850;2023-06-05T04:34:23;4.50;;;2.63;;
24305;SDS011;12423;48.768;8.850;2023-06-05T04:36:26;7.80;;;4.97;;
24305;SDS011;12423;48.768;8.850;2023-06-05T04:38:28;11.20;;;5.80;;
24305;SDS011;12423;48.768;8.850;2023-06-05T04:40:29;7.72;;;4.45;;
24305;SDS011;12423;48.768;8.850;2023-06-05T04:42:33;6.85;;;3.47;;
24305;SDS011;12423;48.768;8.850;2023-06-05T04:44:36;5.28;;;2.45;;
24305;SDS011;12423;48.768;8.850;2023-06-05T04:46:39;4.15;;;2.60;;
24305;SDS011;12423;48.768;8.850;2023-06-05T04:48:40;6.13;;;2.30;;
24305;SDS011;12423;48.768;8.850;2023-06-05T04:50:41;5.65;;;2.45;;
24305;SDS011;12423;48.768;8.850;2023-06-05T04:52:45;5.60;;;2.20;;
24305;SDS011;12423;48.768;8.850;2023-06-05T04:54:46;4.80;;;2.17;;
24305;SDS011;12423;48.768;8.850;2023-06-05T04:56:47;4.25;;;2.17;;
24305;SDS011;12423;48.768;8.850;2023-06-05T04:58:50;2.50;;;1.88;;
24305;SDS011;12423;48.768;8.850;2023-06-05T05:00:53;6.07;;;2.67;;
24305;SDS011;12423;48.768;8.850;2023-06-05T05:02:55;5.60;;;2.45;;
24305;SDS011;12423;48.768;8.850;2023-06-05T05:04:57;5.20;;;2.78;;
24305;SDS011;12423;48.768;8.850;2023-06-05T05:06:58;5.78;;;2.60;;
24305;SDS011;12423;48.768;8.850;2023-06-05T05:09:02;6.57;;;2.88;;
24305;SDS011;12423;48.768;8.850;2023-06-05T05:11:04;4.07;;;2.30;;
24305;SDS011;12423;48.768;8.850;2023-06-05T05:13:05;11.73;;;2.70;;
24305;SDS011;12423;48.768;8.850;2023-06-05T05:15:07;3.88;;;2.33;;
24305;SDS011;12423;48.768;8.850;2023-06-05T05:17:08;3.88;;;2.40;;
24305;SDS011;12423;48.768;8.850;2023-06-05T05:19:10;5.20;;;2.25;;
24305;SDS011;12423;48.768;8.850;2023-06-05T05:21:11;3.67;;;2.40;;
24305;SDS011;12423;48.768;8.850;2023-06-05T05:23:14;4.80;;;2.30;;
24305;SDS011;12423;48.768;8.850;2023-06-05T05:25:15;4.25;;;2.45;;
24305;SDS011;12423;48.768;8.850;2023-06-05T05:27:16;4.32;;;2.17;;
24305;SDS011;12423;48.768;8.850;2023-06-05T05:29:18;5.28;;;2.30;;
24305;SDS011;12423;48.768;8.850;2023-06-05T05:31:19;4.30;;;2.45;;
24305;SDS011;12423;48.768;8.850;2023-06-05T05:33:21;7.30;;;2.70;;
24305;SDS011;12423;48.768;8.850;2023-06-05T05:35:22;4.35;;;2.88;;
24305;SDS011;12423;48.768;8.850;2023-06-05T05:37:23;4.25;;;2.45;;
24305;SDS011;12423;48.768;8.850;2023-06-05T05:39:26;5.43;;;2.70;;
24305;SDS011;12423;48.768;8.850;2023-06-05T05:41:27;4.78;;;2.08;;
24305;SDS011;12423;48.768;8.850;2023-06-05T05:43:28;4.13;;;2.50;;
24305;SDS011;12423;48.768;8.850;2023-06-05T05:45:29;4.22;;;2.30;;
24305;SDS011;12423;48.768;8.850;2023-06-05T05:47:30;4.97;;;2.38;;
24305;SDS011;12423;48.768;8.850;2023-06-05T05:49:31;6.80;;;2.55;;
24305;SDS011;12423;48.768;8.850;2023-06-05T05:51:33;6.57;;;2.72;;
24305;SDS011;12423;48.768;8.850;2023-06-05T05:53:34;4.13;;;2.35;;
24305;SDS011;12423;48.768;8.850;2023-06-05T05:55:36;5.53;;;2.67;;
24305;SDS011;12423;48.768;8.850;2023-06-05T05:57:37;4.55;;;2.58;;
24305;SDS011;12423;48.768;8.850;2023-06-05T05:59:39;5.47;;;2.67;;
24305;SDS011;12423;48.768;8.850;2023-06-05T06:01:43;8.20;;;2.42;;
24305;SDS011;12423;48.768;8.850;2023-06-05T06:03:44;4.90;;;2.47;;
24305;SDS011;12423;48.768;8.850;2023-06-05T06:05:45;4.82;;;2.70;;
24305;SDS011;12423;48.768;8.850;2023-06-05T06:07:46;3.35;;;2.30;;
24305;SDS011;12423;48.768;8.850;2023-06-05T06:09:47;5.25;;;2.15;;
24305;SDS011;12423;48.768;8.850;2023-06-05T06:11:48;7.03;;;2.33;;
24305;SDS011;12423;48.768;8.850;2023-06-05T06:13:50;3.83;;;2.42;;
24305;SDS011;12423;48.768;8.850;2023-06-05T06:15:51;8.70;;;2.63;;
24305;SDS011;12423;48.768;8.850;2023-06-05T06:17:52;7.43;;;2.30;;
24305;SDS011;12423;48.768;8.850;2023-06-05T06:19:53;6.75;;;2.28;;
24305;SDS011;12423;48.768;8.850;2023-06-05T06:21:54;5.70;;;2.58;;
24305;SDS011;12423;48.768;8.850;2023-06-05T06:23:56;4.78;;;2.28;;
24305;SDS011;12423;48.768;8.850;2023-06-05T06:25:57;6.45;;;2.42;;
24305;SDS011;12423;48.768;8.850;2023-06-05T06:27:59;6.30;;;1.90;;
24305;SDS011;12423;48.768;8.850;2023-06-05T06:30:01;6.57;;;2.10;;
24305;SDS011;12423;48.768;8.850;2023-06-05T06:32:03;5.30;;;1.90;;
24305;SDS011;12423;48.768;8.850;2023-06-05T06:34:05;3.67;;;2.13;;
24305;SDS011;12423;48.768;8.850;2023-06-05T06:36:06;6.07;;;2.15;;
24305;SDS011;12423;48.768;8.850;2023-06-05T06:38:07;5.65;;;1.90;;
24305;SDS011;12423;48.768;8.850;2023-06-05T06:40:08;4.35;;;1.80;;
24305;SDS011;12423;48.768;8.850;2023-06-05T06:42:10;3.30;;;1.83;;
24305;SDS011;12423;48.768;8.850;2023-06-05T06:44:13;3.30;;;2.08;;
24305;SDS011;12423;48.768;8.850;2023-06-05T06:46:14;6.68;;;2.17;;
24305;SDS011;12423;48.768;8.850;2023-06-05T06:48:16;5.18;;;2.50;;
24305;SDS011;12423;48.768;8.850;2023-06-05T06:50:20;5.70;;;2.03;;
24305;SDS011;12423;48.768;8.850;2023-06-05T06:52:22;4.53;;;2.13;;
24305;SDS011;12423;48.768;8.850;2023-06-05T06:54:24;5.93;;;2.40;;
24305;SDS011;12423;48.768;8.850;2023-06-05T06:56:26;7.38;;;2.38;;
24305;SDS011;12423;48.768;8.850;2023-06-05T06:58:28;4.90;;;2.13;;
24305;SDS011;12423;48.768;8.850;2023-06-05T07:00:29;4.78;;;2.67;;
24305;SDS011;12423;48.768;8.850;2023-06-05T07:02:30;6.65;;;2.50;;
24305;SDS011;12423;48.768;8.850;2023-06-05T07:04:32;5.15;;;2.35;;
24305;SDS011;12423;48.768;8.850;2023-06-05T07:06:33;6.57;;;2.13;;
24305;SDS011;12423;48.768;8.850;2023-06-05T07:08:34;7.38;;;2.15;;
24305;SDS011;12423;48.768;8.850;2023-06-05T07:10:39;5.70;;;2.30;;
24305;SDS011;12423;48.768;8.850;2023-06-05T07:12:40;8.05;;;2.67;;
24305;SDS011;12423;48.768;8.850;2023-06-05T07:14:41;3.65;;;2.40;;
24305;SDS011;12423;48.768;8.850;2023-06-05T07:16:43;4.32;;;2.40;;
24305;SDS011;12423;48.768;8.850;2023-06-05T07:18:44;4.38;;;2.50;;
24305;SDS011;12423;48.768;8.850;2023-06-05T07:20:45;3.80;;;2.33;;
24305;SDS011;12423;48.768;8.850;2023-06-05T07:22:46;3.67;;;2.20;;
24305;SDS011;12423;48.768;8.850;2023-06-05T07:24:47;5.32;;;2.00;;
24305;SDS011;12423;48.768;8.850;2023-06-05T07:26:50;7.22;;;2.28;;
24305;SDS011;12423;48.768;8.850;2023-06-05T07:28:52;5.05;;;1.90;;
24305;SDS011;12423;48.768;8.850;2023-06-05T07:30:53;10.65;;;2.30;;
24305;SDS011;12423;48.768;8.850;2023-06-05T07:32:54;4.75;;;2.42;;
24305;SDS011;12423;48.768;8.850;2023-06-05T07:34:55;4.40;;;2.25;;
24305;SDS011;12423;48.768;8.850;2023-06-05T07:36:57;6.60;;;2.20;;
24305;SDS011;12423;48.768;8.850;2023-06-05T07:39:00;4.25;;;2.38;;
24305;SDS011;12423;48.768;8.850;2023-06-05T07:41:01;8.98;;;2.80;;
24305;SDS011;12423;48.768;8.850;2023-06-05T07:43:02;5.50;;;2.42;;
24305;SDS011;12423;48.768;8.850;2023-06-05T07:45:03;6.45;;;2.40;;
24305;SDS011;12423;48.768;8.850;2023-06-05T07:47:05;4.70;;;2.47;;
24305;SDS011;12423;48.768;8.850;2023-06-05T07:49:06;5.63;;;2.30;;
24305;SDS011;12423;48.768;8.850;2023-06-05T07:51:08;8.70;;;3.20;;
24305;SDS011;12423;48.768;8.850;2023-06-05T07:53:09;5.00;;;2.50;;
24305;SDS011;12423;48.768;8.850;2023-06-05T07:55:10;7.18;;;2.90;;
24305;SDS011;12423;48.768;8.850;2023-06-05T07:57:11;8.35;;;2.90;;
24305;SDS011;12423;48.768;8.850;2023-06-05T07:59:13;9.50;;;2.63;;
24305;SDS011;12423;48.768;8.850;2023-06-05T08:01:14;10.38;;;2.63;;
24305;SDS011;12423;48.768;8.850;2023-06-05T08:03:16;5.22;;;2.53;;
24305;SDS011;12423;48.768;8.850;2023-06-05T08:05:20;5.55;;;2.67;;
24305;SDS011;12423;48.768;8.850;2023-06-05T08:07:21;7.30;;;2.55;;
24305;SDS011;12423;48.768;8.850;2023-06-05T08:09:22;6.95;;;2.90;;
24305;SDS011;12423;48.768;8.850;2023-06-05T08:11:23;3.83;;;2.42;;
24305;SDS011;12423;48.768;8.850;2023-06-05T08:13:24;4.10;;;2.40;;
24305;SDS011;12423;48.768;8.850;2023-06-05T08:15:27;7.40;;;2.70;;
24305;SDS011;12423;48.768;8.850;2023-06-05T08:17:28;3.85;;;2.53;;
24305;SDS011;12423;48.768;8.850;2023-06-05T08:19:29;7.95;;;2.97;;
24305;SDS011;12423;48.768;8.850;2023-06-05T08:21:30;6.30;;;2.70;;
24305;SDS011;12423;48.768;8.850;2023-06-05T08:23:31;7.53;;;2.78;;
24305;SDS011;12423;48.768;8.850;2023-06-05T08:25:33;9.48;;;3.33;;
24305;SDS011;12423;48.768;8.850;2023-06-05T08:27:34;15.63;;;3.85;;
24305;SDS011;12423;48.768;8.850;2023-06-05T08:29:35;8.65;;;4.03;;
24305;SDS011;12423;48.768;8.850;2023-06-05T08:31:37;6.25;;;3.10;;
24305;SDS011;12423;48.768;8.850;2023-06-05T08:33:38;6.10;;;2.80;;
24305;SDS011;12423;48.768;8.850;2023-06-05T08:35:39;4.40;;;2.95;;
24305;SDS011;12423;48.768;8.850;2023-06-05T08:37:41;8.32;;;3.00;;
24305;SDS011;12423;48.768;8.850;2023-06-05T08:39:42;4.78;;;2.75;;
24305;SDS011;12423;48.768;8.850;2023-06-05T08:41:43;5.72;;;3.78;;
24305;SDS011;12423;48.768;8.850;2023-06-05T08:43:45;7.20;;;3.47;;
24305;SDS011;12423;48.768;8.850;2023-06-05T08:45:47;10.65;;;4.00;;
24305;SDS011;12423;48.768;8.850;2023-06-05T08:47:54;9.35;;;3.80;;
24305;SDS011;12423;48.768;8.850;2023-06-05T08:49:56;9.25;;;4.07;;
24305;SDS011;12423;48.768;8.850;2023-06-05T08:52:01;7.78;;;4.25;;
24305;SDS011;12423;48.768;8.850;2023-06-05T08:54:04;11.13;;;4.10;;
24305;SDS011;12423;48.768;8.850;2023-06-05T08:56:10;7.50;;;3.90;;
24305;SDS011;12423;48.768;8.850;2023-06-05T08:58:12;7.32;;;3.95;;
24305;SDS011;12423;48.768;8.850;2023-06-05T09:00:14;6.05;;;4.13;;
24305;SDS011;12423;48.768;8.850;2023-06-05T09:02:16;4.78;;;3.40;;
24305;SDS011;12423;48.768;8.850;2023-06-05T09:04:18;7.45;;;4.22;;
24305;SDS011;12423;48.768;8.850;2023-06-05T09:06:20;7.90;;;5.30;;
24305;SDS011;12423;48.768;8.850;2023-06-05T09:08:28;9.63;;;4.35;;
24305;SDS011;12423;48.768;8.850;2023-06-05T09:10:33;6.93;;;3.80;;
24305;SDS011;12423;48.768;8.850;2023-06-05T09:12:54;7.97;;;4.88;;
24305;SDS011;12423;48.768;8.850;2023-06-05T09:14:59;8.30;;;4.18;;
24305;SDS011;12423;48.768;8.850;2023-06-05T09:17:00;6.25;;;4.60;;
24305;SDS011;12423;48.768;8.850;2023-06-05T09:19:03;7.20;;;4.13;;
24305;SDS011;12423;48.768;8.850;2023-06-05T09:21:11;8.68;;;3.70;;
24305;SDS011;12423;48.768;8.850;2023-06-05T09:23:26;6.57;;;4.28;;
24305;SDS011;12423;48.768;8.850;2023-06-05T09:25:49;7.45;;;4.30;;
24305;SDS011;12423;48.768;8.850;2023-06-05T09:28:04;7.32;;;4.05;;
24305;SDS011;12423;48.768;8.850;2023-06-05T09:30:07;8.93;;;4.57;;
24305;SDS011;12423;48.768;8.850;2023-06-05T09:34:22;6.47;;;4.38;;
24305;SDS011;12423;48.768;8.850;2023-06-05T09:36:26;7.85;;;4.78;;
24305;SDS011;12423;48.768;8.850;2023-06-05T09:38:27;7.47;;;3.90;;
24305;SDS011;12423;48.768;8.850;2023-06-05T09:40:37;10.23;;;4.47;;
24305;SDS011;12423;48.768;8.850;2023-06-05T09:42:39;6.57;;;4.32;;
24305;SDS011;12423;48.768;8.850;2023-06-05T09:44:41;8.30;;;4.05;;
24305;SDS011;12423;48.768;8.850;2023-06-05T09:47:04;7.53;;;4.10;;
24305;SDS011;12423;48.768;8.850;2023-06-05T09:49:07;7.15;;;4.53;;
24305;SDS011;12423;48.768;8.850;2023-06-05T09:51:09;11.23;;;4.43;;
24305;SDS011;12423;48.768;8.850;2023-06-05T09:53:15;7.60;;;4.40;;
24305;SDS011;12423;48.768;8.850;2023-06-05T09:55:19;5.80;;;4.18;;
24305;SDS011;12423;48.768;8.850;2023-06-05T09:57:22;6.68;;;4.13;;
24305;SDS011;12423;48.768;8.850;2023-06-05T09:59:29;7.82;;;4.80;;
24305;SDS011;12423;48.768;8.850;2023-06-05T10:01:32;7.03;;;4.15;;
24305;SDS011;12423;48.768;8.850;2023-06-05T10:03:36;7.40;;;3.90;;
24305;SDS011;12423;48.768;8.850;2023-06-05T10:05:41;6.53;;;3.97;;
24305;SDS011;12423;48.768;8.850;2023-06-05T10:07:44;7.32;;;3.80;;
24305;SDS011;12423;48.768;8.850;2023-06-05T10:09:47;5.80;;;3.92;;
24305;SDS011;12423;48.768;8.850;2023-06-05T10:11:50;9.50;;;5.15;;
24305;SDS011;12423;48.768;8.850;2023-06-05T10:13:52;8.20;;;4.38;;
24305;SDS011;12423;48.768;8.850;2023-06-05T10:15:54;9.63;;;4.07;;
24305;SDS011;12423;48.768;8.850;2023-06-05T10:17:56;5.45;;;3.75;;
24305;SDS011;12423;48.768;8.850;2023-06-05T10:19:57;5.78;;;3.63;;
24305;SDS011;12423;48.768;8.850;2023-06-05T10:21:59;8.45;;;3.90;;
24305;SDS011;12423;48.768;8.850;2023-06-05T10:24:21;7.20;;;4.35;;
24305;SDS011;12423;48.768;8.850;2023-06-05T10:26:33;5.90;;;3.65;;
24305;SDS011;12423;48.768;8.850;2023-06-05T10:31:33;7.72;;;3.72;;
24305;SDS011;12423;48.768;8.850;2023-06-05T10:38:40;5.60;;;3.63;;
24305;SDS011;12423;48.768;8.850;2023-06-05T10:40:41;8.02;;;4.10;;
24305;SDS011;12423;48.768;8.850;2023-06-05T10:42:43;5.63;;;3.88;;
24305;SDS011;12423;48.768;8.850;2023-06-05T10:44:45;5.57;;;3.88;;
24305;SDS011;12423;48.768;8.850;2023-06-05T10:46:46;5.00;;;3.47;;
24305;SDS011;12423;48.768;8.850;2023-06-05T10:53:41;8.18;;;3.60;;
24305;SDS011;12423;48.768;8.850;2023-06-05T10:55:43;6.22;;;3.47;;
24305;SDS011;12423;48.768;8.850;2023-06-05T11:00:06;6.65;;;3.63;;
24305;SDS011;12423;48.768;8.850;2023-06-05T11:04:19;6.07;;;3.35;;
24305;SDS011;12423;48.768;8.850;2023-06-05T11:06:20;6.80;;;3.30;;
24305;SDS011;12423;48.768;8.850;2023-06-05T11:08:21;8.98;;;4.15;;
24305;SDS011;12423;48.768;8.850;2023-06-05T11:10:23;6.35;;;3.50;;
24305;SDS011;12423;48.768;8.850;2023-06-05T11:12:24;6.03;;;3.42;;
24305;SDS011;12423;48.768;8.850;2023-06-05T11:14:46;7.13;;;3.00;;
24305;SDS011;12423;48.768;8.850;2023-06-05T11:16:49;7.38;;;3.22;;
24305;SDS011;12423;48.768;8.850;2023-06-05T11:18:50;5.95;;;3.80;;
24305;SDS011;12423;48.768;8.850;2023-06-05T11:20:51;6.88;;;3.25;;
24305;SDS011;12423;48.768;8.850;2023-06-05T11:29:43;6.13;;;3.80;;
24305;SDS011;12423;48.768;8.850;2023-06-05T11:31:45;14.93;;;3.53;;
24305;SDS011;12423;48.768;8.850;2023-06-05T11:33:46;7.05;;;3.65;;
24305;SDS011;12423;48.768;8.850;2023-06-05T11:35:48;6.35;;;3.35;;
24305;SDS011;12423;48.768;8.850;2023-06-05T11:38:06;9.23;;;3.78;;
24305;SDS011;12423;48.768;8.850;2023-06-05T11:40:23;8.18;;;3.47;;
24305;SDS011;12423;48.768;8.850;2023-06-05T11:42:25;4.50;;;3.37;;
24305;SDS011;12423;48.768;8.850;2023-06-05T11:44:29;5.22;;;3.55;;
24305;SDS011;12423;48.768;8.850;2023-06-05T11:46:38;4.50;;;3.40;;
24305;SDS011;12423;48.768;8.850;2023-06-05T11:48:44;5.90;;;4.28;;
24305;SDS011;12423;48.768;8.850;2023-06-05T11:50:53;6.50;;;3.40;;
24305;SDS011;12423;48.768;8.850;2023-06-05T11:53:02;7.03;;;3.58;;
24305;SDS011;12423;48.768;8.850;2023-06-05T11:55:17;6.13;;;3.50;;
24305;SDS011;12423;48.768;8.850;2023-06-05T11:59:41;5.65;;;3.17;;
24305;SDS011;12423;48.768;8.850;2023-06-05T12:01:45;9.05;;;3.83;;
24305;SDS011;12423;48.768;8.850;2023-06-05T12:03:47;5.95;;;3.10;;
24305;SDS011;12423;48.768;8.850;2023-06-05T12:05:48;5.07;;;3.25;;
24305;SDS011;12423;48.768;8.850;2023-06-05T12:07:50;5.00;;;3.50;;
24305;SDS011;12423;48.768;8.850;2023-06-05T12:09:51;5.72;;;3.10;;
24305;SDS011;12423;48.768;8.850;2023-06-05T12:11:57;4.68;;;3.28;;
24305;SDS011;12423;48.768;8.850;2023-06-05T12:14:06;7.80;;;3.70;;
24305;SDS011;12423;48.768;8.850;2023-06-05T12:16:07;4.38;;;2.90;;
24305;SDS011;12423;48.768;8.850;2023-06-05T12:18:08;5.78;;;3.58;;
24305;SDS011;12423;48.768;8.850;2023-06-05T12:20:10;7.28;;;3.30;;
24305;SDS011;12423;48.768;8.850;2023-06-05T12:22:11;8.93;;;3.45;;
24305;SDS011;12423;48.768;8.850;2023-06-05T12:24:12;4.53;;;3.33;;
24305;SDS011;12423;48.768;8.850;2023-06-05T12:26:14;5.53;;;3.33;;
24305;SDS011;12423;48.768;8.850;2023-06-05T12:28:19;5.47;;;2.95;;
24305;SDS011;12423;48.768;8.850;2023-06-05T12:30:23;5.00;;;3.20;;
24305;SDS011;12423;48.768;8.850;2023-06-05T12:32:25;7.45;;;3.08;;
24305;SDS011;12423;48.768;8.850;2023-06-05T12:34:37;7.00;;;2.97;;
24305;SDS011;12423;48.768;8.850;2023-06-05T12:36:42;8.23;;;2.92;;
24305;SDS011;12423;48.768;8.850;2023-06-05T12:38:44;5.03;;;2.70;;
24305;SDS011;12423;48.768;8.850;2023-06-05T12:40:46;6.05;;;2.47;;
24305;SDS011;12423;48.768;8.850;2023-06-05T12:42:47;6.53;;;2.60;;
24305;SDS011;12423;48.768;8.850;2023-06-05T12:44:49;3.72;;;2.70;;
24305;SDS011;12423;48.768;8.850;2023-06-05T12:46:50;5.43;;;2.78;;
24305;SDS011;12423;48.768;8.850;2023-06-05T12:48:51;5.80;;;2.80;;
24305;SDS011;12423;48.768;8.850;2023-06-05T12:50:52;6.07;;;2.70;;